sensor_id;sensor_type;location;lat;lon;timestamp;pressure;altitude;pressure_sealevel;temperature
20733;BMP180;10527;52.124;5.196;2022-08-02T00:00:36;101794.00;;;28.80
20733;BMP180;10527;52.124;5.196;2022-08-02T00:03:03;101799.00;;;28.80
20733;BMP180;10527;52.124;5.196;2022-08-02T00:05:30;101796.00;;;28.80
20733;BMP180;10527;52.124;5.196;2022-08-02T00:07:57;101791.00;;;28.80
20733;BMP180;10527;52.124;5.196;2022-08-02T00:10:24;101800.00;;;28.80
20733;BMP180;10527;52.124;5.196;2022-08-02T00:12:50;101797.00;;;28.80
20733;BMP180;10527;52.124;5.196;2022-08-02T00:15:19;101794.00;;;28.70
20733;BMP180;10527;52.124;5.196;2022-08-02T00:17:46;101791.00;;;28.70
20733;BMP180;10527;52.124;5.196;2022-08-02T00:20:15;101782.00;;;28.70
20733;BMP180;10527;52.124;5.196;2022-08-02T00:22:42;101781.00;;;28.70
20733;BMP180;10527;52.124;5.196;2022-08-02T00:25:09;101782.00;;;28.60
20733;BMP180;10527;52.124;5.196;2022-08-02T00:27:36;101775.00;;;28.60
20733;BMP180;10527;52.124;5.196;2022-08-02T00:30:04;101767.00;;;28.60
20733;BMP180;10527;52.124;5.196;2022-08-02T00:32:31;101766.00;;;28.50
20733;BMP180;10527;52.124;5.196;2022-08-02T00:34:58;101773.00;;;28.50
20733;BMP180;10527;52.124;5.196;2022-08-02T00:37:24;101771.00;;;28.50
20733;BMP180;10527;52.124;5.196;2022-08-02T00:39:51;101770.00;;;28.40
20733;BMP180;10527;52.124;5.196;2022-08-02T00:42:18;101774.00;;;28.40
20733;BMP180;10527;52.124;5.196;2022-08-02T00:44:45;101778.00;;;28.40
20733;BMP180;10527;52.124;5.196;2022-08-02T00:47:12;101767.00;;;28.30
20733;BMP180;10527;52.124;5.196;2022-08-02T00:49:45;101768.00;;;28.30
20733;BMP180;10527;52.124;5.196;2022-08-02T00:52:12;101766.00;;;28.30
20733;BMP180;10527;52.124;5.196;2022-08-02T00:54:40;101768.00;;;28.30
20733;BMP180;10527;52.124;5.196;2022-08-02T00:57:07;101768.00;;;28.20
20733;BMP180;10527;52.124;5.196;2022-08-02T00:59:34;101767.00;;;28.20
20733;BMP180;10527;52.124;5.196;2022-08-02T01:02:01;101749.00;;;28.20
20733;BMP180;10527;52.124;5.196;2022-08-02T01:04:28;101752.00;;;28.20
20733;BMP180;10527;52.124;5.196;2022-08-02T01:07:03;101754.00;;;28.20
20733;BMP180;10527;52.124;5.196;2022-08-02T01:09:44;101758.00;;;28.20
20733;BMP180;10527;52.124;5.196;2022-08-02T01:12:12;101753.00;;;28.10
20733;BMP180;10527;52.124;5.196;2022-08-02T01:14:42;101751.00;;;28.10
20733;BMP180;10527;52.124;5.196;2022-08-02T01:17:33;101744.00;;;28.00
20733;BMP180;10527;52.124;5.196;2022-08-02T01:26:42;101739.00;;;27.90
20733;BMP180;10527;52.124;5.196;2022-08-02T01:29:33;101731.00;;;27.90
20733;BMP180;10527;52.124;5.196;2022-08-02T01:32:12;101732.00;;;27.80
20733;BMP180;10527;52.124;5.196;2022-08-02T01:35:09;101726.00;;;27.80
20733;BMP180;10527;52.124;5.196;2022-08-02T01:37:56;101719.00;;;27.80
20733;BMP180;10527;52.124;5.196;2022-08-02T01:40:29;101719.00;;;27.80
20733;BMP180;10527;52.124;5.196;2022-08-02T01:42:58;101721.00;;;27.90
20733;BMP180;10527;52.124;5.196;2022-08-02T01:45:34;101726.00;;;27.90
20733;BMP180;10527;52.124;5.196;2022-08-02T01:48:07;101728.00;;;27.90
20733;BMP180;10527;52.124;5.196;2022-08-02T01:50:37;101733.00;;;27.90
20733;BMP180;10527;52.124;5.196;2022-08-02T01:53:08;101725.00;;;28.00
20733;BMP180;10527;52.124;5.196;2022-08-02T01:55:44;101722.00;;;28.00
20733;BMP180;10527;52.124;5.196;2022-08-02T01:58:30;101722.00;;;28.00
20733;BMP180;10527;52.124;5.196;2022-08-02T02:00:58;101727.00;;;28.00
20733;BMP180;10527;52.124;5.196;2022-08-02T02:03:29;101729.00;;;28.00
20733;BMP180;10527;52.124;5.196;2022-08-02T02:06:01;101729.00;;;28.00
20733;BMP180;10527;52.124;5.196;2022-08-02T02:08:37;101716.00;;;28.00
20733;BMP180;10527;52.124;5.196;2022-08-02T02:11:05;101726.00;;;28.00
20733;BMP180;10527;52.124;5.196;2022-08-02T02:13:57;101723.00;;;28.00
20733;BMP180;10527;52.124;5.196;2022-08-02T02:16:26;101721.00;;;28.00
20733;BMP180;10527;52.124;5.196;2022-08-02T02:18:54;101719.00;;;28.00
20733;BMP180;10527;52.124;5.196;2022-08-02T02:21:21;101707.00;;;28.00
20733;BMP180;10527;52.124;5.196;2022-08-02T02:23:48;101706.00;;;28.00
20733;BMP180;10527;52.124;5.196;2022-08-02T02:26:19;101703.00;;;28.00
20733;BMP180;10527;52.124;5.196;2022-08-02T02:29:02;101703.00;;;27.90
20733;BMP180;10527;52.124;5.196;2022-08-02T02:31:37;101703.00;;;27.80
20733;BMP180;10527;52.124;5.196;2022-08-02T02:36:47;101698.00;;;27.80
20733;BMP180;10527;52.124;5.196;2022-08-02T02:39:21;101702.00;;;27.80
20733;BMP180;10527;52.124;5.196;2022-08-02T02:41:50;101690.00;;;27.80
20733;BMP180;10527;52.124;5.196;2022-08-02T02:44:20;101692.00;;;27.80
20733;BMP180;10527;52.124;5.196;2022-08-02T02:46:52;101691.00;;;27.80
20733;BMP180;10527;52.124;5.196;2022-08-02T02:49:22;101684.00;;;27.80
20733;BMP180;10527;52.124;5.196;2022-08-02T02:51:50;101688.00;;;27.80
20733;BMP180;10527;52.124;5.196;2022-08-02T02:54:19;101684.00;;;27.70
20733;BMP180;10527;52.124;5.196;2022-08-02T02:57:04;101689.00;;;27.70
20733;BMP180;10527;52.124;5.196;2022-08-02T02:59:38;101688.00;;;27.70
20733;BMP180;10527;52.124;5.196;2022-08-02T03:02:16;101683.00;;;27.70
20733;BMP180;10527;52.124;5.196;2022-08-02T03:04:44;101690.00;;;27.70
20733;BMP180;10527;52.124;5.196;2022-08-02T03:07:25;101685.00;;;27.70
20733;BMP180;10527;52.124;5.196;2022-08-02T03:09:52;101690.00;;;27.70
20733;BMP180;10527;52.124;5.196;2022-08-02T03:12:25;101693.00;;;27.80
20733;BMP180;10527;52.124;5.196;2022-08-02T03:15:05;101684.00;;;27.80
20733;BMP180;10527;52.124;5.196;2022-08-02T03:17:59;101683.00;;;27.80
20733;BMP180;10527;52.124;5.196;2022-08-02T03:20:26;101679.00;;;27.80
20733;BMP180;10527;52.124;5.196;2022-08-02T03:22:53;101684.00;;;27.80
20733;BMP180;10527;52.124;5.196;2022-08-02T03:25:20;101682.00;;;27.80
20733;BMP180;10527;52.124;5.196;2022-08-02T03:27:46;101675.00;;;27.80
20733;BMP180;10527;52.124;5.196;2022-08-02T03:30:14;101674.00;;;27.80
20733;BMP180;10527;52.124;5.196;2022-08-02T03:32:45;101678.00;;;27.80
20733;BMP180;10527;52.124;5.196;2022-08-02T03:35:16;101682.00;;;27.80
20733;BMP180;10527;52.124;5.196;2022-08-02T03:37:52;101665.00;;;27.80
20733;BMP180;10527;52.124;5.196;2022-08-02T03:40:22;101658.00;;;27.80
20733;BMP180;10527;52.124;5.196;2022-08-02T03:42:51;101648.00;;;27.80
20733;BMP180;10527;52.124;5.196;2022-08-02T03:45:19;101659.00;;;27.80
20733;BMP180;10527;52.124;5.196;2022-08-02T03:47:46;101641.00;;;27.80
20733;BMP180;10527;52.124;5.196;2022-08-02T03:50:13;101643.00;;;27.70
20733;BMP180;10527;52.124;5.196;2022-08-02T03:52:41;101646.00;;;27.70
20733;BMP180;10527;52.124;5.196;2022-08-02T03:55:13;101652.00;;;27.70
20733;BMP180;10527;52.124;5.196;2022-08-02T03:57:41;101657.00;;;27.70
20733;BMP180;10527;52.124;5.196;2022-08-02T04:00:17;101661.00;;;27.70
20733;BMP180;10527;52.124;5.196;2022-08-02T04:02:44;101660.00;;;27.70
20733;BMP180;10527;52.124;5.196;2022-08-02T04:05:11;101663.00;;;27.60
20733;BMP180;10527;52.124;5.196;2022-08-02T04:07:39;101661.00;;;27.60
20733;BMP180;10527;52.124;5.196;2022-08-02T04:10:25;101651.00;;;27.60
20733;BMP180;10527;52.124;5.196;2022-08-02T04:12:57;101647.00;;;27.60
20733;BMP180;10527;52.124;5.196;2022-08-02T04:15:24;101648.00;;;27.60
20733;BMP180;10527;52.124;5.196;2022-08-02T04:17:55;101652.00;;;27.60
20733;BMP180;10527;52.124;5.196;2022-08-02T04:20:29;101644.00;;;27.60
20733;BMP180;10527;52.124;5.196;2022-08-02T04:23:06;101639.00;;;27.60
20733;BMP180;10527;52.124;5.196;2022-08-02T04:25:34;101644.00;;;27.60
20733;BMP180;10527;52.124;5.196;2022-08-02T04:28:07;101646.00;;;27.60
20733;BMP180;10527;52.124;5.196;2022-08-02T04:30:48;101650.00;;;27.50
20733;BMP180;10527;52.124;5.196;2022-08-02T04:33:16;101658.00;;;27.50
20733;BMP180;10527;52.124;5.196;2022-08-02T04:35:44;101646.00;;;27.50
20733;BMP180;10527;52.124;5.196;2022-08-02T04:38:15;101647.00;;;27.50
20733;BMP180;10527;52.124;5.196;2022-08-02T04:40:54;101641.00;;;27.50
20733;BMP180;10527;52.124;5.196;2022-08-02T04:43:22;101633.00;;;27.50
20733;BMP180;10527;52.124;5.196;2022-08-02T04:45:52;101644.00;;;27.40
20733;BMP180;10527;52.124;5.196;2022-08-02T04:48:20;101644.00;;;27.40
20733;BMP180;10527;52.124;5.196;2022-08-02T04:50:48;101641.00;;;27.30
20733;BMP180;10527;52.124;5.196;2022-08-02T04:53:15;101646.00;;;27.30
20733;BMP180;10527;52.124;5.196;2022-08-02T04:55:42;101643.00;;;27.20
20733;BMP180;10527;52.124;5.196;2022-08-02T04:58:09;101642.00;;;27.20
20733;BMP180;10527;52.124;5.196;2022-08-02T05:00:56;101634.00;;;27.10
20733;BMP180;10527;52.124;5.196;2022-08-02T05:03:23;101631.00;;;27.00
20733;BMP180;10527;52.124;5.196;2022-08-02T05:05:49;101623.00;;;27.00
20733;BMP180;10527;52.124;5.196;2022-08-02T05:08:16;101626.00;;;27.00
20733;BMP180;10527;52.124;5.196;2022-08-02T05:10:43;101604.00;;;26.90
20733;BMP180;10527;52.124;5.196;2022-08-02T05:13:10;101605.00;;;26.90
20733;BMP180;10527;52.124;5.196;2022-08-02T05:15:37;101606.00;;;27.00
20733;BMP180;10527;52.124;5.196;2022-08-02T05:18:04;101602.00;;;27.00
20733;BMP180;10527;52.124;5.196;2022-08-02T05:20:31;101612.00;;;27.00
20733;BMP180;10527;52.124;5.196;2022-08-02T05:22:58;101608.00;;;27.00
20733;BMP180;10527;52.124;5.196;2022-08-02T05:25:24;101616.00;;;27.00
20733;BMP180;10527;52.124;5.196;2022-08-02T05:27:51;101626.00;;;27.00
20733;BMP180;10527;52.124;5.196;2022-08-02T05:30:19;101637.00;;;27.00
20733;BMP180;10527;52.124;5.196;2022-08-02T05:32:49;101635.00;;;27.00
20733;BMP180;10527;52.124;5.196;2022-08-02T05:35:20;101643.00;;;27.00
20733;BMP180;10527;52.124;5.196;2022-08-02T05:37:51;101645.00;;;27.00
20733;BMP180;10527;52.124;5.196;2022-08-02T05:40:19;101651.00;;;27.10
20733;BMP180;10527;52.124;5.196;2022-08-02T05:42:51;101644.00;;;27.10
20733;BMP180;10527;52.124;5.196;2022-08-02T05:45:18;101645.00;;;27.10
20733;BMP180;10527;52.124;5.196;2022-08-02T05:47:45;101644.00;;;27.10
20733;BMP180;10527;52.124;5.196;2022-08-02T05:50:12;101635.00;;;27.20
20733;BMP180;10527;52.124;5.196;2022-08-02T05:55:33;101651.00;;;27.20
20733;BMP180;10527;52.124;5.196;2022-08-02T05:58:23;101640.00;;;27.20
20733;BMP180;10527;52.124;5.196;2022-08-02T06:00:55;101636.00;;;27.20
20733;BMP180;10527;52.124;5.196;2022-08-02T06:03:35;101625.00;;;27.20
20733;BMP180;10527;52.124;5.196;2022-08-02T06:06:14;101630.00;;;27.30
20733;BMP180;10527;52.124;5.196;2022-08-02T06:08:46;101637.00;;;27.30
20733;BMP180;10527;52.124;5.196;2022-08-02T06:11:21;101631.00;;;27.30
20733;BMP180;10527;52.124;5.196;2022-08-02T06:13:50;101632.00;;;27.40
20733;BMP180;10527;52.124;5.196;2022-08-02T06:16:18;101615.00;;;27.40
20733;BMP180;10527;52.124;5.196;2022-08-02T06:18:59;101619.00;;;27.40
20733;BMP180;10527;52.124;5.196;2022-08-02T06:21:27;101608.00;;;27.50
20733;BMP180;10527;52.124;5.196;2022-08-02T06:24:18;101633.00;;;27.50
20733;BMP180;10527;52.124;5.196;2022-08-02T06:26:48;101630.00;;;27.50
20733;BMP180;10527;52.124;5.196;2022-08-02T06:29:19;101630.00;;;27.50
20733;BMP180;10527;52.124;5.196;2022-08-02T06:31:52;101630.00;;;27.50
20733;BMP180;10527;52.124;5.196;2022-08-02T06:34:19;101625.00;;;27.50
20733;BMP180;10527;52.124;5.196;2022-08-02T06:37:33;101621.00;;;27.50
20733;BMP180;10527;52.124;5.196;2022-08-02T06:40:22;101613.00;;;27.50
20733;BMP180;10527;52.124;5.196;2022-08-02T06:43:46;101608.00;;;27.60
20733;BMP180;10527;52.124;5.196;2022-08-02T06:46:15;101595.00;;;27.60
20733;BMP180;10527;52.124;5.196;2022-08-02T06:49:03;101602.00;;;27.60
20733;BMP180;10527;52.124;5.196;2022-08-02T06:51:30;101598.00;;;27.70
20733;BMP180;10527;52.124;5.196;2022-08-02T06:53:58;101602.00;;;27.80
20733;BMP180;10527;52.124;5.196;2022-08-02T06:56:25;101598.00;;;27.80
20733;BMP180;10527;52.124;5.196;2022-08-02T06:58:52;101596.00;;;27.90
20733;BMP180;10527;52.124;5.196;2022-08-02T07:01:19;101596.00;;;28.00
20733;BMP180;10527;52.124;5.196;2022-08-02T07:03:46;101591.00;;;28.00
20733;BMP180;10527;52.124;5.196;2022-08-02T07:06:13;101594.00;;;28.10
20733;BMP180;10527;52.124;5.196;2022-08-02T07:08:40;101594.00;;;28.10
20733;BMP180;10527;52.124;5.196;2022-08-02T07:11:08;101609.00;;;28.20
20733;BMP180;10527;52.124;5.196;2022-08-02T07:13:35;101599.00;;;28.20
20733;BMP180;10527;52.124;5.196;2022-08-02T07:16:06;101600.00;;;28.30
20733;BMP180;10527;52.124;5.196;2022-08-02T07:18:33;101599.00;;;28.30
20733;BMP180;10527;52.124;5.196;2022-08-02T07:21:02;101595.00;;;28.40
20733;BMP180;10527;52.124;5.196;2022-08-02T07:23:35;101591.00;;;28.40
20733;BMP180;10527;52.124;5.196;2022-08-02T07:26:02;101595.00;;;28.50
20733;BMP180;10527;52.124;5.196;2022-08-02T07:28:31;101595.00;;;28.50
20733;BMP180;10527;52.124;5.196;2022-08-02T07:30:58;101591.00;;;28.60
20733;BMP180;10527;52.124;5.196;2022-08-02T07:33:25;101596.00;;;28.70
20733;BMP180;10527;52.124;5.196;2022-08-02T07:36:06;101582.00;;;28.70
20733;BMP180;10527;52.124;5.196;2022-08-02T07:38:42;101585.00;;;28.80
20733;BMP180;10527;52.124;5.196;2022-08-02T07:41:11;101581.00;;;28.80
20733;BMP180;10527;52.124;5.196;2022-08-02T07:43:37;101578.00;;;28.90
20733;BMP180;10527;52.124;5.196;2022-08-02T07:46:04;101573.00;;;29.00
20733;BMP180;10527;52.124;5.196;2022-08-02T07:48:31;101573.00;;;29.00
20733;BMP180;10527;52.124;5.196;2022-08-02T07:50:58;101582.00;;;29.10
20733;BMP180;10527;52.124;5.196;2022-08-02T07:53:25;101576.00;;;29.20
20733;BMP180;10527;52.124;5.196;2022-08-02T07:56:12;101574.00;;;29.30
20733;BMP180;10527;52.124;5.196;2022-08-02T07:58:40;101577.00;;;29.30
20733;BMP180;10527;52.124;5.196;2022-08-02T08:01:09;101571.00;;;29.40
20733;BMP180;10527;52.124;5.196;2022-08-02T08:03:36;101573.00;;;29.50
20733;BMP180;10527;52.124;5.196;2022-08-02T08:06:03;101574.00;;;29.60
20733;BMP180;10527;52.124;5.196;2022-08-02T08:08:31;101580.00;;;29.60
20733;BMP180;10527;52.124;5.196;2022-08-02T08:10:59;101571.00;;;29.80
20733;BMP180;10527;52.124;5.196;2022-08-02T08:13:26;101576.00;;;29.90
20733;BMP180;10527;52.124;5.196;2022-08-02T08:15:55;101567.00;;;30.10
20733;BMP180;10527;52.124;5.196;2022-08-02T08:18:22;101578.00;;;30.30
20733;BMP180;10527;52.124;5.196;2022-08-02T08:20:49;101585.00;;;30.60
20733;BMP180;10527;52.124;5.196;2022-08-02T08:23:18;101581.00;;;30.90
20733;BMP180;10527;52.124;5.196;2022-08-02T08:25:45;101570.00;;;31.20
20733;BMP180;10527;52.124;5.196;2022-08-02T08:28:12;101572.00;;;31.40
20733;BMP180;10527;52.124;5.196;2022-08-02T08:30:40;101570.00;;;31.70
20733;BMP180;10527;52.124;5.196;2022-08-02T08:33:08;101569.00;;;32.00
20733;BMP180;10527;52.124;5.196;2022-08-02T08:35:35;101579.00;;;32.30
20733;BMP180;10527;52.124;5.196;2022-08-02T08:38:02;101581.00;;;32.50
20733;BMP180;10527;52.124;5.196;2022-08-02T08:40:34;101565.00;;;32.80
20733;BMP180;10527;52.124;5.196;2022-08-02T08:43:03;101569.00;;;33.00
20733;BMP180;10527;52.124;5.196;2022-08-02T08:45:30;101568.00;;;33.10
20733;BMP180;10527;52.124;5.196;2022-08-02T08:48:12;101578.00;;;33.20
20733;BMP180;10527;52.124;5.196;2022-08-02T08:51:04;101568.00;;;33.30
20733;BMP180;10527;52.124;5.196;2022-08-02T08:53:39;101577.00;;;33.40
20733;BMP180;10527;52.124;5.196;2022-08-02T08:56:10;101580.00;;;33.50
20733;BMP180;10527;52.124;5.196;2022-08-02T08:58:44;101579.00;;;33.60
20733;BMP180;10527;52.124;5.196;2022-08-02T09:01:15;101582.00;;;33.70
20733;BMP180;10527;52.124;5.196;2022-08-02T09:03:43;101573.00;;;33.80
20733;BMP180;10527;52.124;5.196;2022-08-02T09:06:10;101573.00;;;33.80
20733;BMP180;10527;52.124;5.196;2022-08-02T09:08:37;101577.00;;;33.90
20733;BMP180;10527;52.124;5.196;2022-08-02T09:11:17;101581.00;;;34.00
20733;BMP180;10527;52.124;5.196;2022-08-02T09:13:57;101589.00;;;34.10
20733;BMP180;10527;52.124;5.196;2022-08-02T09:16:36;101586.00;;;34.20
20733;BMP180;10527;52.124;5.196;2022-08-02T09:19:21;101597.00;;;34.40
20733;BMP180;10527;52.124;5.196;2022-08-02T09:22:10;101589.00;;;34.60
20733;BMP180;10527;52.124;5.196;2022-08-02T09:24:49;101588.00;;;34.70
20733;BMP180;10527;52.124;5.196;2022-08-02T09:27:20;101590.00;;;34.80
20733;BMP180;10527;52.124;5.196;2022-08-02T09:29:51;101587.00;;;34.80
20733;BMP180;10527;52.124;5.196;2022-08-02T09:32:46;101590.00;;;34.80
20733;BMP180;10527;52.124;5.196;2022-08-02T09:35:34;101590.00;;;34.80
20733;BMP180;10527;52.124;5.196;2022-08-02T09:38:21;101580.00;;;34.70
20733;BMP180;10527;52.124;5.196;2022-08-02T09:40:51;101588.00;;;34.60
20733;BMP180;10527;52.124;5.196;2022-08-02T09:43:18;101583.00;;;34.60
20733;BMP180;10527;52.124;5.196;2022-08-02T09:45:46;101588.00;;;34.60
20733;BMP180;10527;52.124;5.196;2022-08-02T09:48:13;101579.00;;;34.50
20733;BMP180;10527;52.124;5.196;2022-08-02T09:50:40;101589.00;;;34.40
20733;BMP180;10527;52.124;5.196;2022-08-02T09:53:11;101590.00;;;34.40
20733;BMP180;10527;52.124;5.196;2022-08-02T09:55:41;101587.00;;;34.30
20733;BMP180;10527;52.124;5.196;2022-08-02T09:58:26;101601.00;;;34.30
20733;BMP180;10527;52.124;5.196;2022-08-02T10:00:55;101592.00;;;34.40
20733;BMP180;10527;52.124;5.196;2022-08-02T10:03:25;101593.00;;;34.40
20733;BMP180;10527;52.124;5.196;2022-08-02T10:06:03;101587.00;;;34.40
20733;BMP180;10527;52.124;5.196;2022-08-02T10:08:31;101598.00;;;34.30
20733;BMP180;10527;52.124;5.196;2022-08-02T10:11:00;101594.00;;;34.40
20733;BMP180;10527;52.124;5.196;2022-08-02T10:13:33;101590.00;;;34.30
20733;BMP180;10527;52.124;5.196;2022-08-02T10:16:04;101600.00;;;34.40
20733;BMP180;10527;52.124;5.196;2022-08-02T10:18:33;101587.00;;;34.40
20733;BMP180;10527;52.124;5.196;2022-08-02T10:21:12;101593.00;;;34.40
20733;BMP180;10527;52.124;5.196;2022-08-02T10:23:48;101596.00;;;34.50
20733;BMP180;10527;52.124;5.196;2022-08-02T10:26:19;101597.00;;;34.50
20733;BMP180;10527;52.124;5.196;2022-08-02T10:28:48;101594.00;;;34.60
20733;BMP180;10527;52.124;5.196;2022-08-02T10:31:23;101590.00;;;34.70
20733;BMP180;10527;52.124;5.196;2022-08-02T10:33:53;101580.00;;;34.70
20733;BMP180;10527;52.124;5.196;2022-08-02T10:36:22;101592.00;;;34.80
20733;BMP180;10527;52.124;5.196;2022-08-02T10:38:54;101583.00;;;34.80
20733;BMP180;10527;52.124;5.196;2022-08-02T10:46:51;101566.00;;;34.80
20733;BMP180;10527;52.124;5.196;2022-08-02T10:49:21;101564.00;;;34.90
20733;BMP180;10527;52.124;5.196;2022-08-02T10:52:07;101567.00;;;34.90
20733;BMP180;10527;52.124;5.196;2022-08-02T10:54:39;101566.00;;;35.00
20733;BMP180;10527;52.124;5.196;2022-08-02T10:57:28;101579.00;;;35.10
20733;BMP180;10527;52.124;5.196;2022-08-02T11:02:33;101571.00;;;35.20
20733;BMP180;10527;52.124;5.196;2022-08-02T11:05:13;101564.00;;;35.20
20733;BMP180;10527;52.124;5.196;2022-08-02T11:07:45;101564.00;;;35.30
20733;BMP180;10527;52.124;5.196;2022-08-02T11:10:36;101552.00;;;35.40
20733;BMP180;10527;52.124;5.196;2022-08-02T11:13:17;101559.00;;;35.40
20733;BMP180;10527;52.124;5.196;2022-08-02T11:16:02;101565.00;;;35.50
20733;BMP180;10527;52.124;5.196;2022-08-02T11:23:50;101560.00;;;35.70
20733;BMP180;10527;52.124;5.196;2022-08-02T11:29:00;101564.00;;;35.80
20733;BMP180;10527;52.124;5.196;2022-08-02T11:31:28;101569.00;;;35.90
20733;BMP180;10527;52.124;5.196;2022-08-02T11:34:04;101572.00;;;35.90
20733;BMP180;10527;52.124;5.196;2022-08-02T11:36:50;101558.00;;;36.00
20733;BMP180;10527;52.124;5.196;2022-08-02T11:39:22;101560.00;;;36.00
20733;BMP180;10527;52.124;5.196;2022-08-02T11:41:59;101550.00;;;36.10
20733;BMP180;10527;52.124;5.196;2022-08-02T11:44:54;101562.00;;;36.20
20733;BMP180;10527;52.124;5.196;2022-08-02T11:47:22;101564.00;;;36.20
20733;BMP180;10527;52.124;5.196;2022-08-02T11:49:49;101567.00;;;36.30
20733;BMP180;10527;52.124;5.196;2022-08-02T11:52:16;101550.00;;;36.40
20733;BMP180;10527;52.124;5.196;2022-08-02T11:54:43;101555.00;;;36.40
20733;BMP180;10527;52.124;5.196;2022-08-02T11:57:17;101551.00;;;36.50
20733;BMP180;10527;52.124;5.196;2022-08-02T11:59:56;101542.00;;;36.50
20733;BMP180;10527;52.124;5.196;2022-08-02T12:02:29;101557.00;;;36.60
20733;BMP180;10527;52.124;5.196;2022-08-02T12:05:06;101555.00;;;36.70
20733;BMP180;10527;52.124;5.196;2022-08-02T12:07:38;101553.00;;;36.80
20733;BMP180;10527;52.124;5.196;2022-08-02T12:10:33;101555.00;;;36.90
20733;BMP180;10527;52.124;5.196;2022-08-02T12:13:00;101545.00;;;37.00
20733;BMP180;10527;52.124;5.196;2022-08-02T12:15:32;101553.00;;;37.00
20733;BMP180;10527;52.124;5.196;2022-08-02T12:18:00;101552.00;;;37.00
20733;BMP180;10527;52.124;5.196;2022-08-02T12:20:45;101545.00;;;37.00
20733;BMP180;10527;52.124;5.196;2022-08-02T12:23:12;101554.00;;;37.00
20733;BMP180;10527;52.124;5.196;2022-08-02T12:25:39;101548.00;;;37.00
20733;BMP180;10527;52.124;5.196;2022-08-02T12:28:21;101555.00;;;37.00
20733;BMP180;10527;52.124;5.196;2022-08-02T12:31:10;101556.00;;;36.90
20733;BMP180;10527;52.124;5.196;2022-08-02T12:33:52;101547.00;;;36.90
20733;BMP180;10527;52.124;5.196;2022-08-02T12:36:26;101555.00;;;36.90
20733;BMP180;10527;52.124;5.196;2022-08-02T12:38:59;101554.00;;;36.90
20733;BMP180;10527;52.124;5.196;2022-08-02T12:41:29;101567.00;;;36.90
20733;BMP180;10527;52.124;5.196;2022-08-02T12:43:59;101562.00;;;36.90
20733;BMP180;10527;52.124;5.196;2022-08-02T12:46:26;101549.00;;;36.90
20733;BMP180;10527;52.124;5.196;2022-08-02T12:48:53;101555.00;;;37.00
20733;BMP180;10527;52.124;5.196;2022-08-02T12:51:40;101553.00;;;37.00
20733;BMP180;10527;52.124;5.196;2022-08-02T12:54:38;101559.00;;;37.10
20733;BMP180;10527;52.124;5.196;2022-08-02T12:57:28;101557.00;;;37.10
20733;BMP180;10527;52.124;5.196;2022-08-02T12:59:54;101545.00;;;37.10
20733;BMP180;10527;52.124;5.196;2022-08-02T13:02:21;101546.00;;;37.10
20733;BMP180;10527;52.124;5.196;2022-08-02T13:04:48;101537.00;;;37.20
20733;BMP180;10527;52.124;5.196;2022-08-02T13:07:17;101534.00;;;37.20
20733;BMP180;10527;52.124;5.196;2022-08-02T13:09:44;101542.00;;;37.20
20733;BMP180;10527;52.124;5.196;2022-08-02T13:12:13;101546.00;;;37.30
20733;BMP180;10527;52.124;5.196;2022-08-02T13:14:40;101546.00;;;37.30
20733;BMP180;10527;52.124;5.196;2022-08-02T13:17:10;101544.00;;;37.30
20733;BMP180;10527;52.124;5.196;2022-08-02T13:19:37;101550.00;;;37.40
20733;BMP180;10527;52.124;5.196;2022-08-02T13:22:05;101541.00;;;37.30
20733;BMP180;10527;52.124;5.196;2022-08-02T13:24:36;101534.00;;;37.30
20733;BMP180;10527;52.124;5.196;2022-08-02T13:27:24;101538.00;;;37.40
20733;BMP180;10527;52.124;5.196;2022-08-02T13:29:54;101536.00;;;37.40
20733;BMP180;10527;52.124;5.196;2022-08-02T13:32:22;101529.00;;;37.50
20733;BMP180;10527;52.124;5.196;2022-08-02T13:34:50;101535.00;;;37.50
20733;BMP180;10527;52.124;5.196;2022-08-02T13:37:17;101530.00;;;37.60
20733;BMP180;10527;52.124;5.196;2022-08-02T13:39:44;101517.00;;;37.60
20733;BMP180;10527;52.124;5.196;2022-08-02T13:42:31;101529.00;;;37.70
20733;BMP180;10527;52.124;5.196;2022-08-02T13:45:01;101517.00;;;37.70
20733;BMP180;10527;52.124;5.196;2022-08-02T13:47:41;101523.00;;;37.70
20733;BMP180;10527;52.124;5.196;2022-08-02T13:50:28;101513.00;;;37.70
20733;BMP180;10527;52.124;5.196;2022-08-02T13:52:55;101511.00;;;37.70
20733;BMP180;10527;52.124;5.196;2022-08-02T13:55:22;101513.00;;;37.70
20733;BMP180;10527;52.124;5.196;2022-08-02T13:57:49;101511.00;;;37.60
20733;BMP180;10527;52.124;5.196;2022-08-02T14:00:19;101511.00;;;37.60
20733;BMP180;10527;52.124;5.196;2022-08-02T14:03:03;101500.00;;;37.60
20733;BMP180;10527;52.124;5.196;2022-08-02T14:05:31;101501.00;;;37.70
20733;BMP180;10527;52.124;5.196;2022-08-02T14:08:12;101509.00;;;37.70
20733;BMP180;10527;52.124;5.196;2022-08-02T14:10:43;101505.00;;;37.70
20733;BMP180;10527;52.124;5.196;2022-08-02T14:13:10;101496.00;;;37.80
20733;BMP180;10527;52.124;5.196;2022-08-02T14:15:37;101504.00;;;37.80
20733;BMP180;10527;52.124;5.196;2022-08-02T14:18:04;101498.00;;;37.70
20733;BMP180;10527;52.124;5.196;2022-08-02T14:20:31;101515.00;;;37.70
20733;BMP180;10527;52.124;5.196;2022-08-02T14:22:57;101507.00;;;37.70
20733;BMP180;10527;52.124;5.196;2022-08-02T14:25:24;101490.00;;;37.70
20733;BMP180;10527;52.124;5.196;2022-08-02T14:27:51;101495.00;;;37.70
20733;BMP180;10527;52.124;5.196;2022-08-02T14:30:18;101493.00;;;37.70
20733;BMP180;10527;52.124;5.196;2022-08-02T14:32:45;101487.00;;;37.60
20733;BMP180;10527;52.124;5.196;2022-08-02T14:35:12;101483.00;;;37.70
20733;BMP180;10527;52.124;5.196;2022-08-02T14:37:39;101487.00;;;37.70
20733;BMP180;10527;52.124;5.196;2022-08-02T14:40:06;101484.00;;;37.80
20733;BMP180;10527;52.124;5.196;2022-08-02T14:42:53;101480.00;;;37.70
20733;BMP180;10527;52.124;5.196;2022-08-02T14:45:20;101480.00;;;37.70
20733;BMP180;10527;52.124;5.196;2022-08-02T14:47:48;101462.00;;;37.70
20733;BMP180;10527;52.124;5.196;2022-08-02T14:50:16;101468.00;;;37.70
20733;BMP180;10527;52.124;5.196;2022-08-02T14:52:45;101472.00;;;37.70